Time;durP1;ratioP1;P1;durP2;ratioP2;P2;SDS_P1;SDS_P2;PMS_P1;PMS_P2;Temp;Humidity;BMP_temperature;BMP_pressure;BME280_temperature;BME280_humidity;BME280_pressure;Samples;Min_cycle;Max_cycle;Signal;HPM_P1;HPM_P2
2023/08/17 00:00:45;;;;;;;7.75;3.80;;;14.60;99.90;;;;;;5040382;28;20056;-94
2023/08/17 00:03:11;;;;;;;7.20;4.00;;;14.60;99.90;;;;;;5038514;28;20113;-92
2023/08/17 00:05:37;;;;;;;5.53;3.80;;;14.50;99.90;;;;;;5038731;28;20045;-96
2023/08/17 00:08:03;;;;;;;8.25;3.85;;;14.50;99.90;;;;;;5044556;28;20642;-94
2023/08/17 00:10:29;;;;;;;11.05;4.07;;;14.40;99.90;;;;;;5055163;28;20021;-93
2023/08/17 00:12:54;;;;;;;8.35;4.10;;;14.40;99.90;;;;;;5062350;28;20021;-93
2023/08/17 00:15:20;;;;;;;5.72;3.90;;;14.40;99.90;;;;;;5063958;28;20033;-94
2023/08/17 00:17:46;;;;;;;9.05;4.38;;;14.30;99.90;;;;;;5059830;28;20497;-94
2023/08/17 00:20:11;;;;;;;7.78;4.47;;;14.30;99.90;;;;;;5061034;28;20048;-94
2023/08/17 00:22:37;;;;;;;12.02;5.05;;;14.30;99.90;;;;;;5061758;28;20116;-94
2023/08/17 00:25:06;;;;;;;10.52;5.45;;;14.30;99.90;;;;;;5043956;28;20103;-94
2023/08/17 00:27:34;;;;;;;11.30;5.40;;;14.30;99.90;;;;;;5064443;28;20056;-94
2023/08/17 00:30:00;;;;;;;8.32;4.82;;;14.40;99.90;;;;;;5069338;28;20029;-94
2023/08/17 00:32:25;;;;;;;9.60;4.70;;;14.30;99.90;;;;;;5065552;28;20039;-92
2023/08/17 00:34:51;;;;;;;6.25;3.95;;;14.30;99.90;;;;;;5063072;28;20040;-91
2023/08/17 00:37:18;;;;;;;8.90;5.13;;;14.20;99.90;;;;;;5066880;28;20025;-96
2023/08/17 00:39:43;;;;;;;9.18;5.45;;;14.20;99.90;;;;;;5071478;28;20033;-94
2023/08/17 00:42:09;;;;;;;10.07;5.60;;;14.30;99.90;;;;;;5074671;28;20038;-96
2023/08/17 00:44:35;;;;;;;6.93;4.68;;;14.30;99.90;;;;;;5074272;28;20140;-93
2023/08/17 00:47:01;;;;;;;10.18;4.72;;;14.20;99.90;;;;;;5075060;28;20061;-95
2023/08/17 00:49:27;;;;;;;7.00;4.43;;;14.20;99.90;;;;;;5055758;28;20020;-88
2023/08/17 00:51:53;;;;;;;11.32;5.45;;;14.10;99.90;;;;;;5079780;28;20033;-93
2023/08/17 00:54:24;;;;;;;9.82;4.85;;;14.20;99.90;;;;;;5080127;28;20043;-90
2023/08/17 00:56:49;;;;;;;9.73;5.18;;;14.10;99.90;;;;;;5062234;28;20052;-95
2023/08/17 00:59:15;;;;;;;7.68;5.18;;;14.20;99.90;;;;;;5061659;28;20055;-91
2023/08/17 01:01:41;;;;;;;12.23;6.15;;;14.20;99.90;;;;;;5063253;28;20039;-89
2023/08/17 01:04:09;;;;;;;10.90;6.53;;;14.30;99.90;;;;;;5080763;28;20021;-88
2023/08/17 01:06:36;;;;;;;9.30;5.93;;;14.30;99.90;;;;;;5079703;28;20029;-92
2023/08/17 01:09:02;;;;;;;11.15;6.07;;;14.40;99.90;;;;;;5062320;28;20025;-90
2023/08/17 01:11:34;;;;;;;10.70;4.75;;;14.40;99.90;;;;;;5065128;28;20021;-91
2023/08/17 01:14:30;;;;;;;6.75;4.20;;;14.40;99.90;;;;;;5080087;28;20036;-92
2023/08/17 01:17:20;;;;;;;9.07;4.13;;;14.40;99.90;;;;;;5077300;28;20093;-92
2023/08/17 01:19:47;;;;;;;10.38;4.72;;;14.30;99.90;;;;;;5074428;28;20021;-95
2023/08/17 01:22:17;;;;;;;10.07;4.40;;;14.20;99.90;;;;;;5050530;28;20276;-96
2023/08/17 01:24:43;;;;;;;11.50;5.05;;;14.20;99.90;;;;;;5069763;28;20264;-96
2023/08/17 01:27:09;;;;;;;10.32;4.97;;;14.20;99.90;;;;;;5053605;28;20063;-92
2023/08/17 01:29:35;;;;;;;5.75;4.63;;;14.20;99.90;;;;;;5073485;28;20032;-94
2023/08/17 01:32:13;;;;;;;11.00;5.18;;;14.30;99.90;;;;;;5051259;28;20034;-94
2023/08/17 01:34:50;;;;;;;9.98;5.95;;;14.30;99.90;;;;;;5050987;28;20045;-95
2023/08/17 01:37:19;;;;;;;9.15;6.50;;;14.30;99.90;;;;;;5046151;28;20036;-95
2023/08/17 01:39:49;;;;;;;9.77;5.97;;;14.30;99.90;;;;;;5054385;28;20019;-95
2023/08/17 01:42:15;;;;;;;;;;;14.30;99.90;;;;;;5069299;28;20029;-95
2023/08/17 01:44:41;;;;;;;12.35;6.50;;;14.30;99.90;;;;;;5056936;28;19905;-95
2023/08/17 01:47:07;;;;;;;12.35;6.22;;;14.30;99.90;;;;;;5074145;28;20068;-94
2023/08/17 01:49:32;;;;;;;12.50;6.53;;;14.30;99.90;;;;;;5074145;28;20009;-95
2023/08/17 01:51:58;;;;;;;12.48;6.65;;;14.30;99.90;;;;;;5072146;28;20033;-93
2023/08/17 01:54:24;;;;;;;13.90;7.50;;;14.30;99.90;;;;;;5072003;28;20014;-95
2023/08/17 01:56:49;;;;;;;12.43;6.85;;;14.30;99.90;;;;;;5070243;28;20047;-92
2023/08/17 01:59:15;;;;;;;12.48;7.75;;;14.30;99.90;;;;;;5072682;28;20033;-93
2023/08/17 02:01:41;;;;;;;14.27;6.55;;;14.30;99.90;;;;;;5071945;28;20036;-95
2023/08/17 02:04:06;;;;;;;12.77;7.05;;;14.20;99.90;;;;;;5071736;28;20032;-94
2023/08/17 02:06:32;;;;;;;15.82;8.90;;;14.20;99.90;;;;;;5069287;28;20037;-91
2023/08/17 02:08:59;;;;;;;15.57;8.02;;;14.20;99.90;;;;;;5073305;28;20033;-89
2023/08/17 02:11:24;;;;;;;14.77;8.65;;;14.20;99.90;;;;;;5075696;28;20040;-92
2023/08/17 02:13:50;;;;;;;16.98;8.75;;;14.20;99.90;;;;;;5074463;28;20029;-92
2023/08/17 02:16:17;;;;;;;13.85;8.93;;;14.30;99.90;;;;;;5076078;28;20044;-94
2023/08/17 02:18:43;;;;;;;27.30;11.18;;;14.20;99.90;;;;;;5061595;28;20055;-93
2023/08/17 02:21:09;;;;;;;15.32;9.57;;;14.20;99.90;;;;;;5069517;28;20103;-88
2023/08/17 02:23:35;;;;;;;13.48;8.55;;;14.20;99.90;;;;;;5071934;28;20030;-92
2023/08/17 02:26:01;;;;;;;15.15;6.57;;;14.20;99.90;;;;;;5052746;28;20068;-91
2023/08/17 02:28:26;;;;;;;16.38;7.78;;;14.20;99.90;;;;;;5054948;28;20025;-92
2023/08/17 02:30:58;;;;;;;18.50;6.32;;;14.10;99.90;;;;;;5063865;28;20048;-94
2023/08/17 02:33:24;;;;;;;7.95;4.90;;;14.10;99.90;;;;;;5057569;28;20021;-92
2023/08/17 02:35:52;;;;;;;10.10;5.47;;;14.00;99.90;;;;;;5062970;28;20028;-96
2023/08/17 02:38:18;;;;;;;8.52;5.70;;;14.00;99.90;;;;;;5072630;28;20021;-94
2023/08/17 02:40:44;;;;;;;11.35;7.15;;;14.00;99.90;;;;;;5068301;28;20029;-95
2023/08/17 02:43:09;;;;;;;12.07;7.13;;;13.90;99.90;;;;;;5071683;28;20039;-94
2023/08/17 02:45:35;;;;;;;18.73;7.78;;;14.00;99.90;;;;;;5063084;28;20076;-94
2023/08/17 02:48:01;;;;;;;18.08;9.13;;;13.90;99.90;;;;;;5047023;28;20037;-94
2023/08/17 02:50:27;;;;;;;18.38;8.40;;;14.00;99.90;;;;;;5044313;28;20471;-95
2023/08/17 02:52:52;;;;;;;21.73;10.30;;;14.00;99.90;;;;;;5046776;28;20472;-93
2023/08/17 02:55:18;;;;;;;35.92;14.43;;;14.00;99.90;;;;;;5073115;28;20009;-92
2023/08/17 02:57:44;;;;;;;34.58;15.00;;;14.10;99.90;;;;;;5072976;28;20033;-94
2023/08/17 03:00:10;;;;;;;26.35;13.32;;;14.10;99.90;;;;;;5068193;28;20021;-93
2023/08/17 03:02:35;;;;;;;32.70;14.52;;;14.10;99.90;;;;;;5066936;28;20071;-91
2023/08/17 03:05:02;;;;;;;30.90;16.23;;;14.20;99.90;;;;;;5065332;28;20127;-93
2023/08/17 03:07:28;;;;;;;37.25;16.52;;;14.20;99.90;;;;;;5059415;28;20380;-94
2023/08/17 03:09:54;;;;;;;32.50;13.98;;;14.20;99.90;;;;;;5041970;28;20025;-93
2023/08/17 03:12:19;;;;;;;31.75;12.65;;;14.20;99.90;;;;;;5040733;28;20052;-92
2023/08/17 03:14:45;;;;;;;21.70;9.57;;;14.20;99.90;;;;;;5041860;28;20075;-95
2023/08/17 03:17:11;;;;;;;13.45;8.65;;;14.20;99.90;;;;;;5042046;28;20112;-94
2023/08/17 03:19:37;;;;;;;21.83;9.55;;;14.10;99.90;;;;;;5038403;28;20060;-92
2023/08/17 03:22:02;;;;;;;19.48;10.15;;;14.10;99.90;;;;;;5038497;28;20040;-93
2023/08/17 03:24:28;;;;;;;20.50;10.55;;;14.10;99.90;;;;;;5039005;28;20021;-93
2023/08/17 03:26:54;;;;;;;23.08;11.57;;;14.00;99.90;;;;;;5054431;28;20476;-93
2023/08/17 03:29:20;;;;;;;26.20;9.95;;;14.00;99.90;;;;;;5036575;28;20056;-94
2023/08/17 03:31:46;;;;;;;19.95;10.05;;;14.00;99.90;;;;;;5037374;28;20033;-93
2023/08/17 03:34:11;;;;;;;19.40;8.98;;;14.00;99.90;;;;;;5036787;28;20400;-94
2023/08/17 03:36:37;;;;;;;21.73;10.90;;;14.00;99.90;;;;;;5035891;28;20037;-93
2023/08/17 03:39:03;;;;;;;24.50;10.65;;;14.00;99.90;;;;;;5036800;28;20464;-94
2023/08/17 03:41:28;;;;;;;36.90;14.57;;;14.00;99.90;;;;;;5042152;28;20057;-90
2023/08/17 03:43:54;;;;;;;39.55;17.25;;;14.00;99.90;;;;;;5071131;28;20025;-95
2023/08/17 03:46:19;;;;;;;60.58;22.30;;;14.10;99.90;;;;;;5068887;28;20052;-94
2023/08/17 03:48:45;;;;;;;54.92;21.35;;;14.10;99.90;;;;;;5055248;28;20373;-95
2023/08/17 03:51:11;;;;;;;49.47;20.98;;;14.10;99.90;;;;;;5054808;28;20067;-94
2023/08/17 03:53:39;;;;;;;64.75;25.08;;;14.20;99.90;;;;;;5060705;28;20116;-95
2023/08/17 03:56:05;;;;;;;49.92;22.48;;;14.30;99.90;;;;;;5057400;28;20036;-95
2023/08/17 03:58:34;;;;;;;49.70;20.75;;;14.30;99.90;;;;;;5057952;28;20029;-95
2023/08/17 04:01:00;;;;;;;48.38;20.35;;;14.40;99.90;;;;;;5057089;28;20426;-94
2023/08/17 04:03:25;;;;;;;47.47;20.17;;;14.40;99.90;;;;;;5056537;28;20057;-94
2023/08/17 04:05:51;;;;;;;48.03;20.15;;;14.40;99.90;;;;;;5055416;28;20040;-94
2023/08/17 04:08:16;;;;;;;39.80;17.50;;;14.40;99.90;;;;;;5049091;28;20036;-93
2023/08/17 04:10:42;;;;;;;39.67;16.65;;;14.50;99.90;;;;;;5054148;28;20029;-93
2023/08/17 04:13:08;;;;;;;31.75;13.60;;;14.40;99.90;;;;;;5042400;28;20357;-94
2023/08/17 04:15:33;;;;;;;32.45;15.43;;;14.40;99.90;;;;;;5038141;28;20472;-93
2023/08/17 04:17:59;;;;;;;36.20;16.27;;;14.40;99.90;;;;;;5035746;28;20025;-92
2023/08/17 04:20:25;;;;;;;46.13;20.80;;;14.50;99.90;;;;;;5037261;28;20025;-93
2023/08/17 04:22:51;;;;;;;39.92;18.75;;;14.40;99.90;;;;;;5045190;28;20041;-90
2023/08/17 04:25:17;;;;;;;44.72;18.80;;;14.50;99.90;;;;;;5067396;28;20029;-94
2023/08/17 04:27:42;;;;;;;36.25;16.55;;;14.50;99.90;;;;;;5053731;28;20033;-93
2023/08/17 04:30:09;;;;;;;36.33;17.02;;;14.50;99.90;;;;;;5053481;28;20163;-95
2023/08/17 04:32:35;;;;;;;38.35;17.40;;;14.50;99.90;;;;;;5053519;28;20025;-91
2023/08/17 04:35:01;;;;;;;40.25;18.80;;;14.40;99.90;;;;;;5054079;28;20029;-93
2023/08/17 04:37:27;;;;;;;46.65;20.35;;;14.50;99.90;;;;;;5057527;28;20129;-93
2023/08/17 04:39:52;;;;;;;44.25;19.80;;;14.50;99.90;;;;;;5055317;28;20030;-95
2023/08/17 04:42:19;;;;;;;33.47;16.25;;;14.50;99.90;;;;;;5055551;28;20071;-92
2023/08/17 04:44:45;;;;;;;39.15;18.17;;;14.50;99.90;;;;;;5033252;28;20041;-93
2023/08/17 04:47:11;;;;;;;43.30;19.50;;;14.50;99.90;;;;;;5032810;28;20087;-94
2023/08/17 04:49:37;;;;;;;48.80;21.60;;;14.50;99.90;;;;;;5034438;28;20029;-93
2023/08/17 04:52:03;;;;;;;38.20;17.98;;;14.60;99.90;;;;;;5043907;28;20029;-94
2023/08/17 04:54:28;;;;;;;40.50;18.63;;;14.60;99.90;;;;;;5035984;28;20028;-94
2023/08/17 04:56:54;;;;;;;44.42;19.67;;;14.60;99.90;;;;;;5057253;28;20480;-94
2023/08/17 04:59:20;;;;;;;44.97;20.33;;;14.60;99.90;;;;;;5048875;28;20036;-94
2023/08/17 05:01:45;;;;;;;42.67;19.88;;;14.60;99.90;;;;;;5023477;28;20121;-93
2023/08/17 05:04:11;;;;;;;44.40;21.90;;;14.70;99.90;;;;;;5035714;28;20025;-95
2023/08/17 05:06:38;;;;;;;49.05;21.33;;;14.70;99.90;;;;;;5036402;28;20095;-95
2023/08/17 05:09:04;;;;;;;40.28;19.98;;;14.70;99.90;;;;;;5060218;28;20128;-91
2023/08/17 05:11:30;;;;;;;45.13;21.85;;;14.70;99.90;;;;;;5059627;28;20033;-93
2023/08/17 05:13:56;;;;;;;44.47;21.70;;;14.80;99.90;;;;;;5038611;28;20021;-93
2023/08/17 05:16:22;;;;;;;45.88;21.65;;;14.80;99.90;;;;;;5055826;28;20055;-95
2023/08/17 05:18:48;;;;;;;39.70;21.48;;;14.80;99.90;;;;;;5039344;28;20514;-94
2023/08/17 05:21:13;;;;;;;40.65;21.45;;;14.90;99.90;;;;;;5055448;28;20095;-93
2023/08/17 05:23:39;;;;;;;42.42;21.05;;;14.90;99.90;;;;;;5055715;28;20028;-93
2023/08/17 05:26:04;;;;;;;35.70;17.98;;;14.90;99.90;;;;;;5055761;28;20045;-93
2023/08/17 05:28:30;;;;;;;41.50;20.27;;;15.00;99.90;;;;;;5054913;28;20051;-92
2023/08/17 05:30:56;;;;;;;42.70;20.55;;;15.00;99.90;;;;;;5037497;28;20048;-93
2023/08/17 05:33:22;;;;;;;30.98;15.82;;;15.00;99.90;;;;;;5055729;28;20025;-93
2023/08/17 05:35:54;;;;;;;39.42;20.33;;;15.10;99.90;;;;;;5038161;28;20381;-94
2023/08/17 05:38:19;;;;;;;40.25;19.83;;;15.10;99.90;;;;;;5037993;28;20254;-94
2023/08/17 05:40:45;;;;;;;41.53;20.00;;;15.20;99.90;;;;;;5061579;28;20177;-92
2023/08/17 05:43:10;;;;;;;37.63;19.25;;;15.20;99.90;;;;;;5062683;28;20114;-93
2023/08/17 05:45:36;;;;;;;32.83;18.23;;;15.20;99.90;;;;;;5064093;28;20060;-94
2023/08/17 05:48:03;;;;;;;36.42;18.88;;;15.20;99.90;;;;;;5055933;28;20021;-94
2023/08/17 05:50:29;;;;;;;30.98;17.23;;;15.30;99.90;;;;;;5055200;28;20017;-94
2023/08/17 05:52:55;;;;;;;29.02;16.42;;;15.40;99.90;;;;;;5054118;28;20171;-93
2023/08/17 05:55:20;;;;;;;26.48;17.08;;;15.30;99.90;;;;;;5055342;28;20116;-94
2023/08/17 05:57:46;;;;;;;27.83;15.70;;;15.40;99.90;;;;;;5054895;28;20025;-93
2023/08/17 06:00:12;;;;;;;28.20;15.30;;;15.40;99.90;;;;;;5055052;28;20033;-91
2023/08/17 06:02:39;;;;;;;28.90;15.73;;;15.50;99.90;;;;;;5055516;28;20029;-93
2023/08/17 06:05:05;;;;;;;32.83;13.38;;;15.50;99.90;;;;;;5062329;28;20491;-94
2023/08/17 06:07:31;;;;;;;27.20;12.80;;;15.50;99.90;;;;;;5065319;28;20025;-94
2023/08/17 06:09:56;;;;;;;29.35;13.02;;;15.60;99.90;;;;;;5063414;28;20032;-94
2023/08/17 06:12:22;;;;;;;21.65;12.43;;;15.60;99.90;;;;;;5061620;28;20055;-94
2023/08/17 06:14:48;;;;;;;22.77;11.52;;;15.60;99.90;;;;;;5055456;28;20039;-94
2023/08/17 06:17:13;;;;;;;18.13;10.88;;;15.70;99.90;;;;;;5052690;28;20033;-94
2023/08/17 06:19:39;;;;;;;22.08;10.52;;;15.70;99.90;;;;;;5055122;28;20020;-95
2023/08/17 06:22:05;;;;;;;21.52;10.38;;;15.70;99.90;;;;;;5054304;28;20427;-94
2023/08/17 06:24:31;;;;;;;13.63;8.48;;;15.80;99.90;;;;;;5070336;28;20024;-94
2023/08/17 06:26:56;;;;;;;18.05;9.55;;;15.80;99.90;;;;;;5053912;28;20432;-94
2023/08/17 06:29:22;;;;;;;19.77;8.38;;;15.80;99.90;;;;;;5053713;28;20021;-93
2023/08/17 06:31:48;;;;;;;20.65;11.15;;;15.80;99.90;;;;;;5053955;28;20021;-95
2023/08/17 06:34:13;;;;;;;15.40;8.05;;;15.90;99.90;;;;;;5055040;28;20555;-95
2023/08/17 06:36:39;;;;;;;19.15;8.60;;;15.90;99.90;;;;;;5067791;28;20250;-93
2023/08/17 06:39:05;;;;;;;15.73;6.55;;;15.90;99.90;;;;;;5056498;28;20048;-92
2023/08/17 06:41:30;;;;;;;9.77;6.65;;;15.90;99.90;;;;;;5054880;28;20381;-94
2023/08/17 06:43:56;;;;;;;16.98;7.25;;;15.90;99.90;;;;;;5056004;28;20025;-95
2023/08/17 06:46:32;;;;;;;16.00;7.07;;;15.90;99.90;;;;;;5055100;28;20053;-94
2023/08/17 06:48:58;;;;;;;15.40;7.70;;;15.90;99.90;;;;;;5053976;28;20475;-93
2023/08/17 06:51:24;;;;;;;19.63;6.72;;;16.00;99.90;;;;;;5054327;28;20455;-92
2023/08/17 06:53:50;;;;;;;13.30;7.60;;;15.90;99.90;;;;;;5054807;28;20025;-93
2023/08/17 06:56:16;;;;;;;14.35;6.53;;;16.00;99.90;;;;;;5054769;28;20025;-93
2023/08/17 06:58:41;;;;;;;14.32;6.43;;;16.00;99.90;;;;;;5057004;28;20029;-94
2023/08/17 07:01:07;;;;;;;12.90;5.97;;;16.00;99.90;;;;;;5062541;28;20028;-94
2023/08/17 07:03:33;;;;;;;11.15;5.68;;;16.10;99.90;;;;;;5066828;28;20555;-95
2023/08/17 07:05:58;;;;;;;17.33;6.22;;;16.10;99.90;;;;;;5053568;28;20055;-95
2023/08/17 07:08:24;;;;;;;11.80;4.90;;;16.10;99.90;;;;;;5055011;28;20104;-94
2023/08/17 07:10:50;;;;;;;13.98;5.75;;;16.20;99.90;;;;;;5053642;28;20063;-94
2023/08/17 07:13:15;;;;;;;13.10;5.93;;;16.20;99.90;;;;;;5054246;28;20017;-93
2023/08/17 07:15:41;;;;;;;9.88;5.15;;;16.20;99.90;;;;;;5055716;28;20495;-94
2023/08/17 07:18:06;;;;;;;15.68;5.13;;;16.20;99.90;;;;;;5055130;28;20466;-94
2023/08/17 07:20:32;;;;;;;9.88;4.20;;;16.20;99.90;;;;;;5053288;28;20071;-95
2023/08/17 07:22:58;;;;;;;8.63;4.22;;;16.30;99.90;;;;;;5053106;28;20017;-93
2023/08/17 07:25:23;;;;;;;10.73;4.35;;;16.30;99.90;;;;;;5053783;28;20059;-93
2023/08/17 07:27:49;;;;;;;10.23;4.70;;;16.40;99.90;;;;;;5054393;28;20117;-94
2023/08/17 07:30:16;;;;;;;10.82;5.13;;;16.50;99.90;;;;;;5054408;28;20025;-93
2023/08/17 07:32:54;;;;;;;10.50;4.88;;;16.50;99.90;;;;;;5061056;28;20096;-93
2023/08/17 07:35:45;;;;;;;11.40;4.20;;;16.50;99.90;;;;;;5055384;28;20508;-94
2023/08/17 07:38:17;;;;;;;8.13;3.50;;;16.60;99.90;;;;;;5055773;28;20040;-93
2023/08/17 07:40:43;;;;;;;9.05;4.18;;;16.60;99.90;;;;;;5056636;28;20027;-94
2023/08/17 07:43:09;;;;;;;7.57;3.47;;;16.60;99.90;;;;;;5056560;28;20033;-94
2023/08/17 07:45:34;;;;;;;8.88;3.97;;;16.60;99.90;;;;;;5058848;28;20045;-94
2023/08/17 07:48:00;;;;;;;7.88;3.95;;;16.60;99.90;;;;;;5061341;28;20506;-96
2023/08/17 07:50:25;;;;;;;14.57;3.97;;;16.60;99.90;;;;;;5041108;28;20017;-94
2023/08/17 07:52:51;;;;;;;14.00;3.92;;;16.70;99.90;;;;;;5043770;28;20029;-95
2023/08/17 07:55:17;;;;;;;12.60;4.03;;;16.70;99.90;;;;;;5039767;28;20496;-95
2023/08/17 07:57:43;;;;;;;13.13;3.80;;;16.70;99.90;;;;;;5040992;28;20036;-94
2023/08/17 08:00:09;;;;;;;8.23;3.80;;;16.70;99.90;;;;;;5049058;28;20028;-93
2023/08/17 08:02:35;;;;;;;9.43;3.90;;;16.70;99.90;;;;;;5084129;28;20027;-93
2023/08/17 08:05:04;;;;;;;10.57;4.80;;;16.80;99.90;;;;;;5075849;28;20037;-94
2023/08/17 08:07:29;;;;;;;10.02;3.88;;;16.80;99.90;;;;;;5055171;28;20037;-95
2023/08/17 08:09:55;;;;;;;10.35;4.68;;;16.70;99.90;;;;;;5048121;28;20025;-91
2023/08/17 08:12:20;;;;;;;14.30;3.80;;;16.70;99.90;;;;;;5051735;28;20009;-95
2023/08/17 08:14:51;;;;;;;13.43;3.90;;;16.80;99.90;;;;;;5074526;28;20098;-94
2023/08/17 08:17:16;;;;;;;12.15;3.30;;;16.80;99.90;;;;;;5053155;28;20063;-92
2023/08/17 08:19:43;;;;;;;8.68;3.15;;;16.80;99.90;;;;;;5051353;28;20009;-94
2023/08/17 08:22:16;;;;;;;7.63;3.58;;;16.90;99.90;;;;;;5033905;28;20037;-94
2023/08/17 08:24:43;;;;;;;5.65;2.80;;;16.90;99.90;;;;;;5057385;28;20427;-86
2023/08/17 08:27:09;;;;;;;9.43;3.67;;;16.90;99.90;;;;;;5043273;28;20013;-88
2023/08/17 08:29:34;;;;;;;13.82;4.20;;;17.00;99.90;;;;;;5036803;28;20056;-95
2023/08/17 08:32:09;;;;;;;14.25;3.80;;;17.00;99.90;;;;;;5055667;28;20083;-95
2023/08/17 08:34:35;;;;;;;10.20;3.28;;;17.00;99.90;;;;;;5040435;28;20017;-95
2023/08/17 08:37:01;;;;;;;9.18;3.17;;;17.00;99.90;;;;;;5034929;28;20029;-91
2023/08/17 08:39:27;;;;;;;9.23;3.83;;;17.00;99.90;;;;;;5029526;28;20052;-92
2023/08/17 08:41:53;;;;;;;7.78;3.45;;;17.10;99.90;;;;;;5025566;28;20020;-92
2023/08/17 08:44:19;;;;;;;8.63;3.33;;;17.10;99.90;;;;;;5037452;28;20024;-91
2023/08/17 08:46:46;;;;;;;4.70;3.13;;;17.10;99.90;;;;;;5036477;28;20075;-93
2023/08/17 08:49:13;;;;;;;8.52;3.60;;;17.10;99.90;;;;;;5036387;28;20060;-92
2023/08/17 08:51:43;;;;;;;9.27;3.45;;;17.10;99.90;;;;;;5041007;28;20024;-92
2023/08/17 08:54:13;;;;;;;9.30;3.20;;;17.10;99.90;;;;;;5037753;28;20025;-94
2023/08/17 08:56:41;;;;;;;8.45;3.13;;;17.20;99.90;;;;;;5039833;28;20021;-93
2023/08/17 08:59:08;;;;;;;6.85;3.03;;;17.20;99.90;;;;;;5053345;28;20029;-93
2023/08/17 09:01:34;;;;;;;8.60;2.42;;;17.20;99.90;;;;;;5060542;28;20025;-93
2023/08/17 09:04:01;;;;;;;10.27;3.28;;;17.20;99.90;;;;;;5045919;28;20025;-92
2023/08/17 09:06:29;;;;;;;6.53;2.88;;;17.30;99.90;;;;;;5065257;28;20330;-94
2023/08/17 09:08:57;;;;;;;8.98;3.38;;;17.30;99.90;;;;;;5034824;28;20045;-93
2023/08/17 09:11:22;;;;;;;7.43;2.75;;;17.30;99.90;;;;;;5040853;28;20646;-94
2023/08/17 09:13:48;;;;;;;11.88;2.97;;;17.30;99.90;;;;;;5058739;28;20033;-94
2023/08/17 09:16:17;;;;;;;8.60;2.72;;;17.30;99.90;;;;;;5050526;28;20409;-94
2023/08/17 09:18:43;;;;;;;10.23;2.70;;;17.40;99.90;;;;;;5065644;28;20021;-94
2023/08/17 09:21:21;;;;;;;10.27;2.60;;;17.40;99.90;;;;;;5047738;28;20029;-93
2023/08/17 09:23:52;;;;;;;7.72;2.60;;;17.50;99.90;;;;;;5060102;28;20096;-93
2023/08/17 09:26:22;;;;;;;11.43;2.70;;;17.60;99.90;;;;;;5062471;28;20063;-92
2023/08/17 09:28:48;;;;;;;8.68;2.78;;;17.60;99.90;;;;;;5057313;28;20029;-94
2023/08/17 09:31:14;;;;;;;6.30;2.33;;;17.70;99.90;;;;;;5039468;28;20132;-92
2023/08/17 09:33:39;;;;;;;6.55;2.40;;;17.70;99.90;;;;;;5039899;28;20491;-94
2023/08/17 09:36:05;;;;;;;6.25;2.50;;;17.70;99.90;;;;;;5045618;28;20096;-93
2023/08/17 09:38:31;;;;;;;7.68;2.45;;;17.70;99.90;;;;;;5040395;28;20017;-95
2023/08/17 09:41:00;;;;;;;7.03;2.47;;;17.80;99.90;;;;;;5039422;28;20040;-93
2023/08/17 09:43:28;;;;;;;7.60;2.97;;;17.80;99.90;;;;;;5040027;28;20044;-92
2023/08/17 09:45:54;;;;;;;4.15;2.28;;;17.80;99.90;;;;;;5055742;28;20128;-94
2023/08/17 09:48:20;;;;;;;7.40;3.00;;;17.80;99.90;;;;;;5039009;28;20513;-95
2023/08/17 09:50:48;;;;;;;6.50;2.33;;;17.80;99.90;;;;;;5038364;28;20024;-93
2023/08/17 09:53:17;;;;;;;3.80;2.47;;;17.90;99.90;;;;;;5038529;28;20032;-94
2023/08/17 09:55:44;;;;;;;8.57;2.45;;;18.00;99.90;;;;;;5038412;28;20032;-93
2023/08/17 09:58:16;;;;;;;9.35;3.00;;;18.00;99.90;;;;;;5054865;28;20032;-94
2023/08/17 10:00:49;;;;;;;12.75;2.45;;;18.00;99.90;;;;;;5037235;28;20017;-93
2023/08/17 10:03:15;;;;;;;8.40;2.75;;;18.10;99.90;;;;;;5054194;28;20036;-94
2023/08/17 10:05:43;;;;;;;5.38;1.98;;;18.20;99.90;;;;;;5055969;28;20025;-94
2023/08/17 10:08:11;;;;;;;8.73;2.30;;;18.30;99.90;;;;;;5052165;28;20071;-95
2023/08/17 10:10:42;;;;;;;7.72;1.92;;;18.40;99.90;;;;;;5054294;28;20059;-94
2023/08/17 10:13:39;;;;;;;3.75;1.88;;;18.50;99.90;;;;;;5056542;28;20120;-94
2023/08/17 10:16:20;;;;;;;4.38;2.08;;;18.60;99.90;;;;;;5056231;28;20025;-95
2023/08/17 10:18:57;;;;;;;4.53;1.80;;;18.70;99.90;;;;;;5037401;28;20021;-94
2023/08/17 10:21:36;;;;;;;8.57;2.55;;;18.70;99.90;;;;;;5040345;28;20029;-94
2023/08/17 10:24:03;;;;;;;7.20;1.90;;;18.90;99.90;;;;;;5047419;28;20024;-93
2023/08/17 10:26:29;;;;;;;5.95;1.95;;;18.90;99.90;;;;;;5044840;28;20044;-92
2023/08/17 10:28:58;;;;;;;6.70;2.40;;;18.90;99.90;;;;;;5050506;28;20032;-94
2023/08/17 10:31:25;;;;;;;4.88;1.60;;;19.00;99.90;;;;;;5054837;28;20112;-93
2023/08/17 10:33:51;;;;;;;4.45;1.42;;;19.10;99.90;;;;;;5037227;28;20029;-94
2023/08/17 10:36:17;;;;;;;6.28;1.60;;;19.10;99.90;;;;;;5037283;28;20086;-92
2023/08/17 10:38:43;;;;;;;6.63;1.52;;;19.20;99.90;;;;;;5037523;28;20033;-93
2023/08/17 10:41:12;;;;;;;6.72;1.60;;;19.20;99.90;;;;;;5054915;28;20025;-94
2023/08/17 10:44:07;;;;;;;5.45;1.42;;;19.30;99.90;;;;;;5036895;28;20025;-93
2023/08/17 10:46:37;;;;;;;3.33;1.48;;;19.50;99.90;;;;;;5041924;28;20138;-95
2023/08/17 10:49:05;;;;;;;9.60;1.55;;;19.50;99.90;;;;;;5053790;28;20020;-94
2023/08/17 10:51:31;;;;;;;3.70;1.40;;;19.70;99.90;;;;;;5054068;28;20561;-94
2023/08/17 10:54:01;;;;;;;4.13;1.45;;;19.80;99.90;;;;;;5057248;28;20029;-94
2023/08/17 10:56:30;;;;;;;5.03;1.00;;;19.90;99.90;;;;;;5061315;28;20017;-92
2023/08/17 10:59:02;;;;;;;2.58;1.30;;;19.90;99.90;;;;;;5055968;28;20025;-93
2023/08/17 11:01:36;;;;;;;5.63;1.38;;;20.00;99.90;;;;;;5054248;28;20053;-91
2023/08/17 11:04:18;;;;;;;5.53;1.52;;;20.00;99.90;;;;;;5051944;28;20075;-93
2023/08/17 11:07:01;;;;;;;2.03;1.25;;;20.10;99.90;;;;;;5060699;28;20053;-92
2023/08/17 11:09:27;;;;;;;5.22;1.23;;;20.10;99.90;;;;;;5057602;28;20109;-94
2023/08/17 11:11:56;;;;;;;3.47;1.40;;;20.10;99.90;;;;;;5054428;28;20056;-92
2023/08/17 11:14:22;;;;;;;2.60;1.35;;;20.10;99.90;;;;;;5045265;28;20039;-93
2023/08/17 11:16:48;;;;;;;2.78;1.30;;;20.10;99.90;;;;;;5033885;28;20116;-92
2023/08/17 11:19:13;;;;;;;4.85;1.70;;;20.10;99.90;;;;;;5039743;28;20481;-92
2023/08/17 11:21:39;;;;;;;2.50;1.30;;;20.20;99.90;;;;;;5034249;28;20495;-92
2023/08/17 11:24:09;;;;;;;5.88;1.60;;;20.30;99.90;;;;;;5033896;28;20041;-93
2023/08/17 11:26:35;;;;;;;6.85;1.27;;;20.40;99.90;;;;;;5037429;28;20037;-93
2023/08/17 11:29:02;;;;;;;2.78;1.30;;;20.50;99.90;;;;;;5042887;28;20021;-92
2023/08/17 11:31:28;;;;;;;4.43;1.70;;;20.40;99.80;;;;;;5054396;28;20037;-94
2023/08/17 11:33:54;;;;;;;4.75;1.15;;;20.50;99.50;;;;;;5055443;28;20037;-93
2023/08/17 11:36:21;;;;;;;3.72;1.20;;;20.50;99.30;;;;;;5057880;28;20119;-95
2023/08/17 11:38:47;;;;;;;3.63;1.60;;;20.60;98.80;;;;;;5059055;28;20033;-94
2023/08/17 11:41:14;;;;;;;4.55;1.67;;;20.70;98.70;;;;;;5056817;28;20047;-93
2023/08/17 11:43:40;;;;;;;4.30;1.58;;;20.80;98.70;;;;;;5071306;28;20035;-93
2023/08/17 11:46:06;;;;;;;5.38;1.80;;;20.80;98.50;;;;;;5055591;28;20053;-93
2023/08/17 11:48:32;;;;;;;8.50;1.60;;;20.80;98.60;;;;;;5055151;28;20082;-94
2023/08/17 11:50:58;;;;;;;4.65;1.80;;;20.80;98.70;;;;;;5035221;28;20032;-93
2023/08/17 11:53:24;;;;;;;4.32;1.73;;;21.00;98.90;;;;;;5037680;28;20120;-92
2023/08/17 11:55:50;;;;;;;5.90;1.55;;;21.10;98.70;;;;;;5053711;28;20032;-94
2023/08/17 11:58:16;;;;;;;4.82;2.10;;;21.40;98.40;;;;;;5018401;28;20033;-93
2023/08/17 12:00:46;;;;;;;2.60;1.63;;;21.40;97.70;;;;;;5033281;28;20056;-92
2023/08/17 12:03:15;;;;;;;5.35;1.75;;;21.30;97.10;;;;;;5036708;28;20111;-90
2023/08/17 12:05:43;;;;;;;3.20;1.42;;;21.30;96.80;;;;;;5036081;28;20041;-94
2023/08/17 12:08:09;;;;;;;6.28;2.58;;;21.20;96.70;;;;;;5055856;28;20033;-94
2023/08/17 12:10:37;;;;;;;4.47;1.92;;;21.20;96.80;;;;;;5037464;28;20028;-93
2023/08/17 12:13:03;;;;;;;4.95;1.42;;;21.30;96.70;;;;;;5038241;28;20029;-94
2023/08/17 12:15:32;;;;;;;2.42;1.30;;;21.40;96.20;;;;;;5038071;28;20025;-92
2023/08/17 12:18:03;;;;;;;2.72;1.33;;;21.40;95.80;;;;;;5037936;28;20021;-93
2023/08/17 12:20:30;;;;;;;4.95;1.20;;;21.40;95.70;;;;;;5039943;28;20033;-95
2023/08/17 12:22:58;;;;;;;6.43;1.60;;;21.60;95.50;;;;;;5053172;28;20075;-94
2023/08/17 12:25:25;;;;;;;2.88;1.42;;;21.60;95.20;;;;;;5067140;28;20029;-92
2023/08/17 12:27:51;;;;;;;3.85;1.30;;;21.80;95.00;;;;;;5070706;28;20044;-92
2023/08/17 12:30:27;;;;;;;4.47;1.30;;;22.00;94.60;;;;;;5070608;28;20031;-91
2023/08/17 12:32:53;;;;;;;3.42;1.20;;;22.40;93.90;;;;;;5063959;28;20044;-92
2023/08/17 12:35:21;;;;;;;1.85;1.08;;;22.70;92.90;;;;;;5062796;28;20032;-92
2023/08/17 12:37:47;;;;;;;4.20;1.20;;;22.90;92.00;;;;;;5043931;28;20052;-93